sensor_id;sensor_type;location;lat;lon;timestamp;temperature;humidity
12276;DHT22;6200;48.144;11.424;2024-03-22T00:02:08;7.20;99.90
12276;DHT22;6200;48.144;11.424;2024-03-22T00:04:37;7.20;99.90
12276;DHT22;6200;48.144;11.424;2024-03-22T00:07:03;7.20;99.90
12276;DHT22;6200;48.144;11.424;2024-03-22T00:09:28;7.20;99.90
12276;DHT22;6200;48.144;11.424;2024-03-22T00:11:54;7.10;99.90
12276;DHT22;6200;48.144;11.424;2024-03-22T00:14:19;7.10;99.90
12276;DHT22;6200;48.144;11.424;2024-03-22T00:16:45;7.10;99.90
12276;DHT22;6200;48.144;11.424;2024-03-22T00:19:10;7.10;99.90
12276;DHT22;6200;48.144;11.424;2024-03-22T00:21:36;7.00;99.90
12276;DHT22;6200;48.144;11.424;2024-03-22T00:24:01;7.00;99.90
12276;DHT22;6200;48.144;11.424;2024-03-22T00:26:27;7.00;99.90
12276;DHT22;6200;48.144;11.424;2024-03-22T00:28:53;7.10;99.90
12276;DHT22;6200;48.144;11.424;2024-03-22T00:31:18;7.00;99.90
12276;DHT22;6200;48.144;11.424;2024-03-22T00:33:44;7.00;99.90
12276;DHT22;6200;48.144;11.424;2024-03-22T00:36:10;7.00;99.90
12276;DHT22;6200;48.144;11.424;2024-03-22T00:38:36;7.10;99.90
12276;DHT22;6200;48.144;11.424;2024-03-22T00:41:01;7.10;99.90
12276;DHT22;6200;48.144;11.424;2024-03-22T00:43:27;7.10;99.90
12276;DHT22;6200;48.144;11.424;2024-03-22T00:45:52;7.10;99.90
12276;DHT22;6200;48.144;11.424;2024-03-22T00:48:18;7.10;99.90
12276;DHT22;6200;48.144;11.424;2024-03-22T00:50:44;7.10;99.90
12276;DHT22;6200;48.144;11.424;2024-03-22T00:53:09;7.10;99.90
12276;DHT22;6200;48.144;11.424;2024-03-22T00:55:35;7.10;99.90
12276;DHT22;6200;48.144;11.424;2024-03-22T00:58:02;7.00;99.90
12276;DHT22;6200;48.144;11.424;2024-03-22T01:00:28;7.00;99.90
12276;DHT22;6200;48.144;11.424;2024-03-22T01:02:53;7.10;99.90
12276;DHT22;6200;48.144;11.424;2024-03-22T01:05:19;7.10;99.90
12276;DHT22;6200;48.144;11.424;2024-03-22T01:07:44;7.10;99.90
12276;DHT22;6200;48.144;11.424;2024-03-22T01:10:10;7.10;99.90
12276;DHT22;6200;48.144;11.424;2024-03-22T01:12:36;7.10;99.90
12276;DHT22;6200;48.144;11.424;2024-03-22T01:15:03;7.10;99.90
12276;DHT22;6200;48.144;11.424;2024-03-22T01:17:28;7.00;99.90
12276;DHT22;6200;48.144;11.424;2024-03-22T01:19:54;7.00;99.90
12276;DHT22;6200;48.144;11.424;2024-03-22T01:22:20;7.00;99.90
12276;DHT22;6200;48.144;11.424;2024-03-22T01:24:45;7.00;99.90
12276;DHT22;6200;48.144;11.424;2024-03-22T01:27:11;7.00;99.90
12276;DHT22;6200;48.144;11.424;2024-03-22T01:29:37;7.00;99.90
12276;DHT22;6200;48.144;11.424;2024-03-22T01:32:03;7.00;99.90
12276;DHT22;6200;48.144;11.424;2024-03-22T01:34:28;7.00;99.90
12276;DHT22;6200;48.144;11.424;2024-03-22T01:36:54;7.00;99.90
12276;DHT22;6200;48.144;11.424;2024-03-22T01:39:21;6.90;99.90
12276;DHT22;6200;48.144;11.424;2024-03-22T01:41:50;6.90;99.90
12276;DHT22;6200;48.144;11.424;2024-03-22T01:44:15;6.90;99.90
12276;DHT22;6200;48.144;11.424;2024-03-22T01:46:42;6.80;99.90
12276;DHT22;6200;48.144;11.424;2024-03-22T01:49:09;6.80;99.90
12276;DHT22;6200;48.144;11.424;2024-03-22T01:51:37;6.70;99.90
12276;DHT22;6200;48.144;11.424;2024-03-22T01:54:03;6.70;99.90
12276;DHT22;6200;48.144;11.424;2024-03-22T01:56:29;6.70;99.90
12276;DHT22;6200;48.144;11.424;2024-03-22T01:58:56;6.70;99.90
12276;DHT22;6200;48.144;11.424;2024-03-22T02:01:22;6.70;99.90
12276;DHT22;6200;48.144;11.424;2024-03-22T02:03:48;6.70;99.90
12276;DHT22;6200;48.144;11.424;2024-03-22T02:06:13;6.70;99.90
12276;DHT22;6200;48.144;11.424;2024-03-22T02:08:39;6.70;99.90
12276;DHT22;6200;48.144;11.424;2024-03-22T02:11:07;6.70;99.90
12276;DHT22;6200;48.144;11.424;2024-03-22T02:13:33;6.60;99.90
12276;DHT22;6200;48.144;11.424;2024-03-22T02:15:58;6.60;99.90
12276;DHT22;6200;48.144;11.424;2024-03-22T02:18:23;6.60;99.90
12276;DHT22;6200;48.144;11.424;2024-03-22T02:20:49;6.60;99.90
12276;DHT22;6200;48.144;11.424;2024-03-22T02:23:14;6.60;99.90
12276;DHT22;6200;48.144;11.424;2024-03-22T02:25:40;6.60;99.90
12276;DHT22;6200;48.144;11.424;2024-03-22T02:28:05;6.60;99.90
12276;DHT22;6200;48.144;11.424;2024-03-22T02:30:31;6.60;99.90
12276;DHT22;6200;48.144;11.424;2024-03-22T02:32:56;6.60;99.90
12276;DHT22;6200;48.144;11.424;2024-03-22T02:35:22;6.60;99.90
12276;DHT22;6200;48.144;11.424;2024-03-22T02:37:47;6.50;99.90
12276;DHT22;6200;48.144;11.424;2024-03-22T02:40:13;6.50;99.90
12276;DHT22;6200;48.144;11.424;2024-03-22T02:42:38;6.40;99.90
12276;DHT22;6200;48.144;11.424;2024-03-22T02:45:04;6.40;99.90
12276;DHT22;6200;48.144;11.424;2024-03-22T02:47:30;6.30;99.90
12276;DHT22;6200;48.144;11.424;2024-03-22T02:49:55;6.30;99.90
12276;DHT22;6200;48.144;11.424;2024-03-22T02:52:21;6.30;99.90
12276;DHT22;6200;48.144;11.424;2024-03-22T02:54:46;6.30;99.90
12276;DHT22;6200;48.144;11.424;2024-03-22T02:57:12;6.20;99.90
12276;DHT22;6200;48.144;11.424;2024-03-22T02:59:37;6.20;99.90
12276;DHT22;6200;48.144;11.424;2024-03-22T03:02:03;6.20;99.90
12276;DHT22;6200;48.144;11.424;2024-03-22T03:04:28;6.20;99.90
12276;DHT22;6200;48.144;11.424;2024-03-22T03:06:54;6.20;99.90
12276;DHT22;6200;48.144;11.424;2024-03-22T03:09:19;6.30;99.90
12276;DHT22;6200;48.144;11.424;2024-03-22T03:11:45;6.20;99.90
12276;DHT22;6200;48.144;11.424;2024-03-22T03:14:11;6.20;99.90
12276;DHT22;6200;48.144;11.424;2024-03-22T03:16:36;6.20;99.90
12276;DHT22;6200;48.144;11.424;2024-03-22T03:19:02;6.20;99.90
12276;DHT22;6200;48.144;11.424;2024-03-22T03:21:27;6.20;99.90
12276;DHT22;6200;48.144;11.424;2024-03-22T03:23:53;6.20;99.90
12276;DHT22;6200;48.144;11.424;2024-03-22T03:26:18;6.20;99.90
12276;DHT22;6200;48.144;11.424;2024-03-22T03:28:44;6.20;99.90
12276;DHT22;6200;48.144;11.424;2024-03-22T03:31:09;6.10;99.90
12276;DHT22;6200;48.144;11.424;2024-03-22T03:33:35;6.10;99.90
12276;DHT22;6200;48.144;11.424;2024-03-22T03:36:00;6.10;99.90
12276;DHT22;6200;48.144;11.424;2024-03-22T03:38:26;6.10;99.90
12276;DHT22;6200;48.144;11.424;2024-03-22T03:40:51;6.00;99.90
12276;DHT22;6200;48.144;11.424;2024-03-22T03:43:17;6.00;99.90
12276;DHT22;6200;48.144;11.424;2024-03-22T03:45:42;6.00;99.90
12276;DHT22;6200;48.144;11.424;2024-03-22T03:48:08;6.00;99.90
12276;DHT22;6200;48.144;11.424;2024-03-22T03:50:33;6.00;99.90
12276;DHT22;6200;48.144;11.424;2024-03-22T03:52:59;6.00;99.90
12276;DHT22;6200;48.144;11.424;2024-03-22T03:55:24;5.90;99.90
12276;DHT22;6200;48.144;11.424;2024-03-22T03:57:50;5.80;99.90
12276;DHT22;6200;48.144;11.424;2024-03-22T04:00:16;5.70;99.90
12276;DHT22;6200;48.144;11.424;2024-03-22T04:02:41;5.70;99.90
12276;DHT22;6200;48.144;11.424;2024-03-22T04:05:07;5.60;99.90
12276;DHT22;6200;48.144;11.424;2024-03-22T04:07:33;5.50;99.90
12276;DHT22;6200;48.144;11.424;2024-03-22T04:09:58;5.50;99.90
12276;DHT22;6200;48.144;11.424;2024-03-22T04:12:26;5.50;99.90
12276;DHT22;6200;48.144;11.424;2024-03-22T04:14:52;5.50;99.90
12276;DHT22;6200;48.144;11.424;2024-03-22T04:17:17;6.40;99.90
12276;DHT22;6200;48.144;11.424;2024-03-22T04:19:43;5.50;99.90
12276;DHT22;6200;48.144;11.424;2024-03-22T04:22:08;5.50;99.90
12276;DHT22;6200;48.144;11.424;2024-03-22T04:24:34;5.50;99.90
12276;DHT22;6200;48.144;11.424;2024-03-22T04:26:59;5.50;99.90
12276;DHT22;6200;48.144;11.424;2024-03-22T04:29:25;5.50;99.90
12276;DHT22;6200;48.144;11.424;2024-03-22T04:31:50;5.50;99.90
12276;DHT22;6200;48.144;11.424;2024-03-22T04:34:16;5.60;99.90
12276;DHT22;6200;48.144;11.424;2024-03-22T04:36:41;5.60;99.90
12276;DHT22;6200;48.144;11.424;2024-03-22T04:39:07;5.60;99.90
12276;DHT22;6200;48.144;11.424;2024-03-22T04:41:34;5.60;99.90
12276;DHT22;6200;48.144;11.424;2024-03-22T04:44:00;5.70;99.90
12276;DHT22;6200;48.144;11.424;2024-03-22T04:46:25;5.70;99.90
12276;DHT22;6200;48.144;11.424;2024-03-22T04:48:51;5.70;99.90
12276;DHT22;6200;48.144;11.424;2024-03-22T04:51:16;5.70;99.90
12276;DHT22;6200;48.144;11.424;2024-03-22T04:53:42;5.80;99.90
12276;DHT22;6200;48.144;11.424;2024-03-22T04:56:07;5.80;99.90
12276;DHT22;6200;48.144;11.424;2024-03-22T04:58:34;5.90;99.90
12276;DHT22;6200;48.144;11.424;2024-03-22T05:01:00;5.90;99.90
12276;DHT22;6200;48.144;11.424;2024-03-22T05:03:26;6.00;99.90
12276;DHT22;6200;48.144;11.424;2024-03-22T05:05:51;6.00;99.90
12276;DHT22;6200;48.144;11.424;2024-03-22T05:08:17;6.10;99.90
12276;DHT22;6200;48.144;11.424;2024-03-22T05:10:42;6.10;99.90
12276;DHT22;6200;48.144;11.424;2024-03-22T05:13:08;6.20;99.90
12276;DHT22;6200;48.144;11.424;2024-03-22T05:15:33;6.20;99.90
12276;DHT22;6200;48.144;11.424;2024-03-22T05:17:59;6.30;99.90
12276;DHT22;6200;48.144;11.424;2024-03-22T05:20:25;6.30;99.90
12276;DHT22;6200;48.144;11.424;2024-03-22T05:22:51;6.30;99.90
12276;DHT22;6200;48.144;11.424;2024-03-22T05:25:17;6.40;99.90
12276;DHT22;6200;48.144;11.424;2024-03-22T05:27:42;6.40;99.90
12276;DHT22;6200;48.144;11.424;2024-03-22T05:30:12;6.40;99.90
12276;DHT22;6200;48.144;11.424;2024-03-22T05:32:38;6.50;99.90
12276;DHT22;6200;48.144;11.424;2024-03-22T05:35:04;6.60;99.90
12276;DHT22;6200;48.144;11.424;2024-03-22T05:37:30;6.60;99.90
12276;DHT22;6200;48.144;11.424;2024-03-22T05:39:56;6.60;99.90
12276;DHT22;6200;48.144;11.424;2024-03-22T05:42:21;6.70;99.90
12276;DHT22;6200;48.144;11.424;2024-03-22T05:44:47;6.80;99.90
12276;DHT22;6200;48.144;11.424;2024-03-22T05:47:13;6.80;99.90
12276;DHT22;6200;48.144;11.424;2024-03-22T05:49:38;6.80;99.90
12276;DHT22;6200;48.144;11.424;2024-03-22T05:52:04;6.80;99.90
12276;DHT22;6200;48.144;11.424;2024-03-22T05:54:29;6.80;99.90
12276;DHT22;6200;48.144;11.424;2024-03-22T05:56:55;6.90;99.90
12276;DHT22;6200;48.144;11.424;2024-03-22T05:59:21;6.90;99.90
12276;DHT22;6200;48.144;11.424;2024-03-22T06:01:46;6.90;99.90
12276;DHT22;6200;48.144;11.424;2024-03-22T06:04:12;7.00;99.90
12276;DHT22;6200;48.144;11.424;2024-03-22T06:06:37;7.00;99.90
12276;DHT22;6200;48.144;11.424;2024-03-22T06:09:03;7.10;99.90
12276;DHT22;6200;48.144;11.424;2024-03-22T06:11:32;7.10;99.90
12276;DHT22;6200;48.144;11.424;2024-03-22T06:13:57;7.10;99.90
12276;DHT22;6200;48.144;11.424;2024-03-22T06:16:23;7.10;99.90
12276;DHT22;6200;48.144;11.424;2024-03-22T06:18:49;7.10;99.90
12276;DHT22;6200;48.144;11.424;2024-03-22T06:21:14;7.20;99.90
12276;DHT22;6200;48.144;11.424;2024-03-22T06:23:40;7.10;99.90
12276;DHT22;6200;48.144;11.424;2024-03-22T06:26:06;7.10;99.90
12276;DHT22;6200;48.144;11.424;2024-03-22T06:28:32;7.20;99.90
12276;DHT22;6200;48.144;11.424;2024-03-22T06:30:57;7.20;99.90
12276;DHT22;6200;48.144;11.424;2024-03-22T06:33:23;7.20;99.90
12276;DHT22;6200;48.144;11.424;2024-03-22T06:35:48;7.20;99.90
12276;DHT22;6200;48.144;11.424;2024-03-22T06:38:14;7.30;99.90
12276;DHT22;6200;48.144;11.424;2024-03-22T06:40:40;7.30;99.90
12276;DHT22;6200;48.144;11.424;2024-03-22T06:43:06;7.40;99.90
12276;DHT22;6200;48.144;11.424;2024-03-22T06:45:31;7.40;99.90
12276;DHT22;6200;48.144;11.424;2024-03-22T06:47:57;7.50;99.90
12276;DHT22;6200;48.144;11.424;2024-03-22T06:50:22;7.30;99.90
12276;DHT22;6200;48.144;11.424;2024-03-22T06:52:53;7.60;99.90
12276;DHT22;6200;48.144;11.424;2024-03-22T06:55:22;7.70;99.90
12276;DHT22;6200;48.144;11.424;2024-03-22T06:57:49;7.70;99.90
12276;DHT22;6200;48.144;11.424;2024-03-22T07:00:15;7.80;99.90
12276;DHT22;6200;48.144;11.424;2024-03-22T07:02:41;7.90;99.90
12276;DHT22;6200;48.144;11.424;2024-03-22T07:05:08;8.10;99.90
12276;DHT22;6200;48.144;11.424;2024-03-22T07:07:35;8.20;99.90
12276;DHT22;6200;48.144;11.424;2024-03-22T07:10:01;8.30;99.90
12276;DHT22;6200;48.144;11.424;2024-03-22T07:12:27;8.40;99.90
12276;DHT22;6200;48.144;11.424;2024-03-22T07:14:53;8.60;99.90
12276;DHT22;6200;48.144;11.424;2024-03-22T07:17:18;8.70;99.90
12276;DHT22;6200;48.144;11.424;2024-03-22T07:19:49;8.80;99.90
12276;DHT22;6200;48.144;11.424;2024-03-22T07:22:15;9.00;99.90
12276;DHT22;6200;48.144;11.424;2024-03-22T07:24:41;9.20;99.90
12276;DHT22;6200;48.144;11.424;2024-03-22T07:27:06;9.40;99.90
12276;DHT22;6200;48.144;11.424;2024-03-22T07:29:32;9.60;99.90
12276;DHT22;6200;48.144;11.424;2024-03-22T07:31:57;9.80;99.90
12276;DHT22;6200;48.144;11.424;2024-03-22T07:34:23;10.00;99.90
12276;DHT22;6200;48.144;11.424;2024-03-22T07:36:48;10.20;99.90
12276;DHT22;6200;48.144;11.424;2024-03-22T07:39:14;10.50;99.90
12276;DHT22;6200;48.144;11.424;2024-03-22T07:41:40;10.60;99.90
12276;DHT22;6200;48.144;11.424;2024-03-22T07:44:05;10.80;99.90
12276;DHT22;6200;48.144;11.424;2024-03-22T07:46:31;11.00;99.90
12276;DHT22;6200;48.144;11.424;2024-03-22T07:48:57;11.10;99.90
12276;DHT22;6200;48.144;11.424;2024-03-22T07:51:23;11.30;99.90
12276;DHT22;6200;48.144;11.424;2024-03-22T07:53:48;11.30;99.90
12276;DHT22;6200;48.144;11.424;2024-03-22T07:56:14;11.40;99.90
12276;DHT22;6200;48.144;11.424;2024-03-22T07:58:41;11.40;99.90
12276;DHT22;6200;48.144;11.424;2024-03-22T08:01:06;11.50;99.90
12276;DHT22;6200;48.144;11.424;2024-03-22T08:03:32;11.70;99.90
12276;DHT22;6200;48.144;11.424;2024-03-22T08:05:57;11.80;99.90
12276;DHT22;6200;48.144;11.424;2024-03-22T08:08:23;11.80;99.90
12276;DHT22;6200;48.144;11.424;2024-03-22T08:10:48;11.90;99.90
12276;DHT22;6200;48.144;11.424;2024-03-22T08:13:14;12.10;99.90
12276;DHT22;6200;48.144;11.424;2024-03-22T08:15:40;12.20;99.90
12276;DHT22;6200;48.144;11.424;2024-03-22T08:18:05;12.40;99.90
12276;DHT22;6200;48.144;11.424;2024-03-22T08:20:31;12.50;99.90
12276;DHT22;6200;48.144;11.424;2024-03-22T08:22:59;12.70;99.90
12276;DHT22;6200;48.144;11.424;2024-03-22T08:25:24;13.00;99.90
12276;DHT22;6200;48.144;11.424;2024-03-22T08:27:50;13.30;99.90
12276;DHT22;6200;48.144;11.424;2024-03-22T08:30:18;13.50;99.90
12276;DHT22;6200;48.144;11.424;2024-03-22T08:32:43;13.90;99.90
12276;DHT22;6200;48.144;11.424;2024-03-22T08:35:09;14.20;99.90
12276;DHT22;6200;48.144;11.424;2024-03-22T08:37:34;14.50;99.90
12276;DHT22;6200;48.144;11.424;2024-03-22T08:40:00;14.90;99.90
12276;DHT22;6200;48.144;11.424;2024-03-22T08:42:25;15.10;99.90
12276;DHT22;6200;48.144;11.424;2024-03-22T08:44:51;15.30;99.90
12276;DHT22;6200;48.144;11.424;2024-03-22T08:47:16;15.40;99.90
12276;DHT22;6200;48.144;11.424;2024-03-22T08:49:42;15.50;99.90
12276;DHT22;6200;48.144;11.424;2024-03-22T08:52:09;15.60;99.90
12276;DHT22;6200;48.144;11.424;2024-03-22T08:54:35;15.60;99.90
12276;DHT22;6200;48.144;11.424;2024-03-22T08:57:00;15.70;99.90
12276;DHT22;6200;48.144;11.424;2024-03-22T08:59:27;15.80;99.90
12276;DHT22;6200;48.144;11.424;2024-03-22T09:01:52;15.70;99.90
12276;DHT22;6200;48.144;11.424;2024-03-22T09:04:18;15.70;99.90
12276;DHT22;6200;48.144;11.424;2024-03-22T09:06:44;15.90;99.90
12276;DHT22;6200;48.144;11.424;2024-03-22T09:09:10;16.10;99.90
12276;DHT22;6200;48.144;11.424;2024-03-22T09:11:36;16.40;99.90
12276;DHT22;6200;48.144;11.424;2024-03-22T09:14:02;16.60;99.90
12276;DHT22;6200;48.144;11.424;2024-03-22T09:16:27;16.70;99.90
12276;DHT22;6200;48.144;11.424;2024-03-22T09:18:53;16.70;99.90
12276;DHT22;6200;48.144;11.424;2024-03-22T09:21:19;16.70;99.90
12276;DHT22;6200;48.144;11.424;2024-03-22T09:23:45;16.70;99.90
12276;DHT22;6200;48.144;11.424;2024-03-22T09:26:10;16.70;99.90
12276;DHT22;6200;48.144;11.424;2024-03-22T09:28:36;16.90;99.90
12276;DHT22;6200;48.144;11.424;2024-03-22T09:31:05;17.20;99.90
12276;DHT22;6200;48.144;11.424;2024-03-22T09:33:34;17.60;99.90
12276;DHT22;6200;48.144;11.424;2024-03-22T09:36:01;17.60;99.90
12276;DHT22;6200;48.144;11.424;2024-03-22T09:38:26;17.70;99.90
12276;DHT22;6200;48.144;11.424;2024-03-22T09:40:52;17.90;99.90
12276;DHT22;6200;48.144;11.424;2024-03-22T09:43:21;17.90;99.90
12276;DHT22;6200;48.144;11.424;2024-03-22T09:45:50;18.00;99.90
12276;DHT22;6200;48.144;11.424;2024-03-22T09:48:19;18.30;99.90
12276;DHT22;6200;48.144;11.424;2024-03-22T09:50:46;18.40;99.90
12276;DHT22;6200;48.144;11.424;2024-03-22T09:53:13;18.50;99.90
12276;DHT22;6200;48.144;11.424;2024-03-22T09:55:39;18.70;99.90
12276;DHT22;6200;48.144;11.424;2024-03-22T09:58:09;18.90;99.90
12276;DHT22;6200;48.144;11.424;2024-03-22T10:00:35;19.40;99.90
12276;DHT22;6200;48.144;11.424;2024-03-22T10:03:00;19.70;99.90
12276;DHT22;6200;48.144;11.424;2024-03-22T10:05:26;19.80;99.90
12276;DHT22;6200;48.144;11.424;2024-03-22T10:07:51;19.70;99.80
12276;DHT22;6200;48.144;11.424;2024-03-22T10:10:18;19.80;99.30
12276;DHT22;6200;48.144;11.424;2024-03-22T10:12:43;19.80;98.70
12276;DHT22;6200;48.144;11.424;2024-03-22T10:15:09;19.70;97.90
12276;DHT22;6200;48.144;11.424;2024-03-22T10:17:35;19.70;99.10
12276;DHT22;6200;48.144;11.424;2024-03-22T10:20:01;19.90;98.20
12276;DHT22;6200;48.144;11.424;2024-03-22T10:22:26;20.00;99.10
12276;DHT22;6200;48.144;11.424;2024-03-22T10:24:53;19.90;97.70
12276;DHT22;6200;48.144;11.424;2024-03-22T10:27:18;19.90;97.20
12276;DHT22;6200;48.144;11.424;2024-03-22T10:29:44;19.90;97.70
12276;DHT22;6200;48.144;11.424;2024-03-22T10:32:11;19.90;96.90
12276;DHT22;6200;48.144;11.424;2024-03-22T10:34:37;19.80;97.30
12276;DHT22;6200;48.144;11.424;2024-03-22T10:37:05;19.70;97.20
12276;DHT22;6200;48.144;11.424;2024-03-22T10:39:33;19.80;98.10
12276;DHT22;6200;48.144;11.424;2024-03-22T10:41:59;20.00;96.80
12276;DHT22;6200;48.144;11.424;2024-03-22T10:44:24;20.20;96.30
12276;DHT22;6200;48.144;11.424;2024-03-22T10:46:51;20.10;95.80
12276;DHT22;6200;48.144;11.424;2024-03-22T10:49:19;20.40;96.80
12276;DHT22;6200;48.144;11.424;2024-03-22T10:51:51;20.50;96.50
12276;DHT22;6200;48.144;11.424;2024-03-22T10:54:25;20.50;96.30
12276;DHT22;6200;48.144;11.424;2024-03-22T10:56:51;20.50;96.70
12276;DHT22;6200;48.144;11.424;2024-03-22T10:59:21;20.30;95.20
12276;DHT22;6200;48.144;11.424;2024-03-22T11:01:48;20.10;94.70
12276;DHT22;6200;48.144;11.424;2024-03-22T11:04:21;20.00;96.40
12276;DHT22;6200;48.144;11.424;2024-03-22T11:06:50;19.90;94.70
12276;DHT22;6200;48.144;11.424;2024-03-22T11:09:22;20.20;97.80
12276;DHT22;6200;48.144;11.424;2024-03-22T11:11:48;20.60;95.00
12276;DHT22;6200;48.144;11.424;2024-03-22T11:14:13;21.00;95.30
12276;DHT22;6200;48.144;11.424;2024-03-22T11:16:45;21.30;93.40
12276;DHT22;6200;48.144;11.424;2024-03-22T11:19:10;21.60;93.70
12276;DHT22;6200;48.144;11.424;2024-03-22T11:21:37;21.40;92.50
12276;DHT22;6200;48.144;11.424;2024-03-22T11:24:03;21.50;93.60
12276;DHT22;6200;48.144;11.424;2024-03-22T11:26:29;21.50;92.60
12276;DHT22;6200;48.144;11.424;2024-03-22T11:28:54;21.60;92.70
12276;DHT22;6200;48.144;11.424;2024-03-22T11:31:20;21.80;93.70
12276;DHT22;6200;48.144;11.424;2024-03-22T11:33:51;21.80;91.20
12276;DHT22;6200;48.144;11.424;2024-03-22T11:36:17;21.70;92.50
12276;DHT22;6200;48.144;11.424;2024-03-22T11:38:42;22.10;91.90
12276;DHT22;6200;48.144;11.424;2024-03-22T11:41:08;22.30;92.70
12276;DHT22;6200;48.144;11.424;2024-03-22T11:43:34;22.30;91.10
12276;DHT22;6200;48.144;11.424;2024-03-22T11:46:00;22.00;90.30
12276;DHT22;6200;48.144;11.424;2024-03-22T11:48:27;22.00;91.90
12276;DHT22;6200;48.144;11.424;2024-03-22T11:50:52;22.00;92.10
12276;DHT22;6200;48.144;11.424;2024-03-22T11:53:18;22.00;91.50
12276;DHT22;6200;48.144;11.424;2024-03-22T11:55:43;21.90;90.50
12276;DHT22;6200;48.144;11.424;2024-03-22T11:58:10;21.80;92.20
12276;DHT22;6200;48.144;11.424;2024-03-22T12:00:36;21.40;91.90
12276;DHT22;6200;48.144;11.424;2024-03-22T12:03:04;21.70;90.50
12276;DHT22;6200;48.144;11.424;2024-03-22T12:05:31;21.80;91.50
12276;DHT22;6200;48.144;11.424;2024-03-22T12:07:56;21.80;91.10
12276;DHT22;6200;48.144;11.424;2024-03-22T12:10:22;21.70;90.60
12276;DHT22;6200;48.144;11.424;2024-03-22T12:12:47;21.60;91.70
12276;DHT22;6200;48.144;11.424;2024-03-22T12:15:13;21.60;91.00
12276;DHT22;6200;48.144;11.424;2024-03-22T12:17:39;21.60;91.70
12276;DHT22;6200;48.144;11.424;2024-03-22T12:20:08;21.40;91.00
12276;DHT22;6200;48.144;11.424;2024-03-22T12:22:34;21.40;91.20
12276;DHT22;6200;48.144;11.424;2024-03-22T12:24:59;21.30;91.50
12276;DHT22;6200;48.144;11.424;2024-03-22T12:27:25;21.20;91.10
12276;DHT22;6200;48.144;11.424;2024-03-22T12:29:50;21.20;91.10
12276;DHT22;6200;48.144;11.424;2024-03-22T12:32:16;21.00;91.50
12276;DHT22;6200;48.144;11.424;2024-03-22T12:34:42;20.90;91.90
12276;DHT22;6200;48.144;11.424;2024-03-22T12:37:07;20.90;91.90
12276;DHT22;6200;48.144;11.424;2024-03-22T12:39:33;21.00;92.30
12276;DHT22;6200;48.144;11.424;2024-03-22T12:41:59;20.90;92.50
12276;DHT22;6200;48.144;11.424;2024-03-22T12:44:25;20.80;91.80
12276;DHT22;6200;48.144;11.424;2024-03-22T12:46:50;20.80;91.80
12276;DHT22;6200;48.144;11.424;2024-03-22T12:49:17;20.80;92.00
12276;DHT22;6200;48.144;11.424;2024-03-22T12:51:42;20.80;91.50
12276;DHT22;6200;48.144;11.424;2024-03-22T12:54:09;20.70;91.80
12276;DHT22;6200;48.144;11.424;2024-03-22T12:56:34;20.80;92.20
12276;DHT22;6200;48.144;11.424;2024-03-22T12:59:00;20.60;91.00
12276;DHT22;6200;48.144;11.424;2024-03-22T13:01:26;20.50;91.30
12276;DHT22;6200;48.144;11.424;2024-03-22T13:03:51;20.60;92.60
12276;DHT22;6200;48.144;11.424;2024-03-22T13:06:17;20.60;91.60
12276;DHT22;6200;48.144;11.424;2024-03-22T13:08:42;20.60;92.40
12276;DHT22;6200;48.144;11.424;2024-03-22T13:11:08;20.40;91.00
12276;DHT22;6200;48.144;11.424;2024-03-22T13:13:35;20.40;92.50
12276;DHT22;6200;48.144;11.424;2024-03-22T13:16:00;20.30;91.30
12276;DHT22;6200;48.144;11.424;2024-03-22T13:18:28;20.20;92.40
12276;DHT22;6200;48.144;11.424;2024-03-22T13:20:54;20.20;90.60
12276;DHT22;6200;48.144;11.424;2024-03-22T13:23:19;20.20;92.60
12276;DHT22;6200;48.144;11.424;2024-03-22T13:25:45;20.30;91.70
12276;DHT22;6200;48.144;11.424;2024-03-22T13:28:10;20.30;91.50
12276;DHT22;6200;48.144;11.424;2024-03-22T13:30:36;20.30;91.70
12276;DHT22;6200;48.144;11.424;2024-03-22T13:33:03;20.30;93.20
12276;DHT22;6200;48.144;11.424;2024-03-22T13:35:29;20.40;91.80
12276;DHT22;6200;48.144;11.424;2024-03-22T13:37:55;20.40;91.50
12276;DHT22;6200;48.144;11.424;2024-03-22T13:40:20;20.40;91.70
12276;DHT22;6200;48.144;11.424;2024-03-22T13:42:46;20.40;92.40
12276;DHT22;6200;48.144;11.424;2024-03-22T13:45:12;20.30;91.10
12276;DHT22;6200;48.144;11.424;2024-03-22T13:47:37;20.20;91.70
12276;DHT22;6200;48.144;11.424;2024-03-22T13:50:06;20.20;91.50
12276;DHT22;6200;48.144;11.424;2024-03-22T13:52:32;20.30;92.60
12276;DHT22;6200;48.144;11.424;2024-03-22T13:54:57;20.30;91.80
12276;DHT22;6200;48.144;11.424;2024-03-22T13:57:25;20.40;91.70
12276;DHT22;6200;48.144;11.424;2024-03-22T13:59:51;20.50;92.00
12276;DHT22;6200;48.144;11.424;2024-03-22T14:02:17;20.50;91.40
12276;DHT22;6200;48.144;11.424;2024-03-22T14:04:42;20.50;91.00
12276;DHT22;6200;48.144;11.424;2024-03-22T14:07:08;20.40;91.70
12276;DHT22;6200;48.144;11.424;2024-03-22T14:09:35;20.40;90.90
12276;DHT22;6200;48.144;11.424;2024-03-22T14:12:01;20.30;91.30
12276;DHT22;6200;48.144;11.424;2024-03-22T14:14:27;20.20;91.00
12276;DHT22;6200;48.144;11.424;2024-03-22T14:16:54;20.20;91.80
12276;DHT22;6200;48.144;11.424;2024-03-22T14:19:19;20.00;90.70
12276;DHT22;6200;48.144;11.424;2024-03-22T14:21:45;20.00;91.30
12276;DHT22;6200;48.144;11.424;2024-03-22T14:24:14;20.00;91.70
12276;DHT22;6200;48.144;11.424;2024-03-22T14:26:40;20.10;92.00
12276;DHT22;6200;48.144;11.424;2024-03-22T14:29:09;20.00;91.20
12276;DHT22;6200;48.144;11.424;2024-03-22T14:31:35;20.00;91.40
12276;DHT22;6200;48.144;11.424;2024-03-22T14:34:01;20.00;91.90
12276;DHT22;6200;48.144;11.424;2024-03-22T14:36:26;20.10;91.70
12276;DHT22;6200;48.144;11.424;2024-03-22T14:38:51;20.00;86.60
12276;DHT22;6200;48.144;11.424;2024-03-22T14:41:17;20.00;85.80
12276;DHT22;6200;48.144;11.424;2024-03-22T14:43:43;20.00;85.10
12276;DHT22;6200;48.144;11.424;2024-03-22T14:46:09;20.00;86.40
12276;DHT22;6200;48.144;11.424;2024-03-22T14:48:34;19.90;83.00
12276;DHT22;6200;48.144;11.424;2024-03-22T14:51:00;19.90;86.70
12276;DHT22;6200;48.144;11.424;2024-03-22T14:53:26;19.80;83.40
12276;DHT22;6200;48.144;11.424;2024-03-22T14:55:54;19.70;84.40
12276;DHT22;6200;48.144;11.424;2024-03-22T14:58:26;19.60;85.50
12276;DHT22;6200;48.144;11.424;2024-03-22T15:00:56;19.40;85.80
12276;DHT22;6200;48.144;11.424;2024-03-22T15:03:22;19.40;85.50
12276;DHT22;6200;48.144;11.424;2024-03-22T15:05:50;19.30;83.50
12276;DHT22;6200;48.144;11.424;2024-03-22T15:08:16;19.30;85.70
12276;DHT22;6200;48.144;11.424;2024-03-22T15:10:42;19.20;90.20
12276;DHT22;6200;48.144;11.424;2024-03-22T15:13:08;19.10;85.20
12276;DHT22;6200;48.144;11.424;2024-03-22T15:15:34;19.20;87.70
12276;DHT22;6200;48.144;11.424;2024-03-22T15:17:59;19.30;87.00
12276;DHT22;6200;48.144;11.424;2024-03-22T15:20:25;19.30;89.80
12276;DHT22;6200;48.144;11.424;2024-03-22T15:22:55;19.30;83.40
12276;DHT22;6200;48.144;11.424;2024-03-22T15:25:21;19.30;87.20
12276;DHT22;6200;48.144;11.424;2024-03-22T15:27:46;19.30;87.00
12276;DHT22;6200;48.144;11.424;2024-03-22T15:30:13;19.20;86.20